sensor_id;sensor_type;location;lat;lon;timestamp;P1;durP1;ratioP1;P2;durP2;ratioP2
83097;SDS011;72971;47.204;8.582;2023-10-08T00:02:24;2.58;;;1.85;;
83097;SDS011;72971;47.204;8.582;2023-10-08T00:07:27;2.20;;;1.67;;
83097;SDS011;72971;47.204;8.582;2023-10-08T00:12:29;2.42;;;2.00;;
83097;SDS011;72971;47.204;8.582;2023-10-08T00:17:32;2.58;;;2.17;;
83097;SDS011;72971;47.204;8.582;2023-10-08T00:22:34;2.75;;;1.92;;
83097;SDS011;72971;47.204;8.582;2023-10-08T00:27:37;3.60;;;2.00;;
83097;SDS011;72971;47.204;8.582;2023-10-08T00:32:39;2.65;;;1.98;;
83097;SDS011;72971;47.204;8.582;2023-10-08T00:37:42;2.62;;;1.85;;
83097;SDS011;72971;47.204;8.582;2023-10-08T00:42:46;2.90;;;1.80;;
83097;SDS011;72971;47.204;8.582;2023-10-08T00:47:48;2.52;;;1.80;;
83097;SDS011;72971;47.204;8.582;2023-10-08T00:52:52;2.90;;;1.87;;
83097;SDS011;72971;47.204;8.582;2023-10-08T00:57:59;2.75;;;1.90;;
83097;SDS011;72971;47.204;8.582;2023-10-08T01:03:13;2.50;;;1.87;;
83097;SDS011;72971;47.204;8.582;2023-10-08T01:08:20;2.52;;;1.77;;
83097;SDS011;72971;47.204;8.582;2023-10-08T01:13:25;2.52;;;1.95;;
83097;SDS011;72971;47.204;8.582;2023-10-08T01:18:29;2.30;;;1.90;;
83097;SDS011;72971;47.204;8.582;2023-10-08T01:23:33;2.87;;;1.82;;
83097;SDS011;72971;47.204;8.582;2023-10-08T01:28:38;2.15;;;1.77;;
83097;SDS011;72971;47.204;8.582;2023-10-08T01:33:41;2.67;;;2.05;;
83097;SDS011;72971;47.204;8.582;2023-10-08T01:38:45;1.98;;;1.77;;
83097;SDS011;72971;47.204;8.582;2023-10-08T01:43:49;2.40;;;1.80;;
83097;SDS011;72971;47.204;8.582;2023-10-08T01:48:53;2.62;;;2.00;;
83097;SDS011;72971;47.204;8.582;2023-10-08T01:53:57;2.50;;;1.80;;
83097;SDS011;72971;47.204;8.582;2023-10-08T01:58:59;2.40;;;1.92;;
83097;SDS011;72971;47.204;8.582;2023-10-08T02:04:02;2.65;;;1.80;;
83097;SDS011;72971;47.204;8.582;2023-10-08T02:09:08;2.33;;;1.67;;
83097;SDS011;72971;47.204;8.582;2023-10-08T02:14:10;2.33;;;1.67;;
83097;SDS011;72971;47.204;8.582;2023-10-08T02:19:14;2.92;;;2.08;;
83097;SDS011;72971;47.204;8.582;2023-10-08T02:24:22;2.50;;;1.77;;
83097;SDS011;72971;47.204;8.582;2023-10-08T02:29:28;2.37;;;1.72;;
83097;SDS011;72971;47.204;8.582;2023-10-08T02:34:32;2.47;;;1.60;;
83097;SDS011;72971;47.204;8.582;2023-10-08T02:39:36;2.22;;;1.80;;
83097;SDS011;72971;47.204;8.582;2023-10-08T02:44:40;2.50;;;1.87;;
83097;SDS011;72971;47.204;8.582;2023-10-08T02:49:45;2.50;;;1.90;;
83097;SDS011;72971;47.204;8.582;2023-10-08T02:54:52;2.12;;;1.67;;
83097;SDS011;72971;47.204;8.582;2023-10-08T02:59:54;2.22;;;1.75;;
83097;SDS011;72971;47.204;8.582;2023-10-08T03:04:57;2.45;;;1.90;;
83097;SDS011;72971;47.204;8.582;2023-10-08T03:10:00;2.45;;;1.82;;
83097;SDS011;72971;47.204;8.582;2023-10-08T03:15:10;1.95;;;1.72;;
83097;SDS011;72971;47.204;8.582;2023-10-08T03:20:17;2.47;;;1.82;;
83097;SDS011;72971;47.204;8.582;2023-10-08T03:25:38;2.00;;;1.50;;
83097;SDS011;72971;47.204;8.582;2023-10-08T03:30:46;1.98;;;1.72;;
83097;SDS011;72971;47.204;8.582;2023-10-08T03:35:54;2.10;;;1.52;;
83097;SDS011;72971;47.204;8.582;2023-10-08T03:40:57;2.30;;;1.75;;
83097;SDS011;72971;47.204;8.582;2023-10-08T03:46:01;3.00;;;1.72;;
83097;SDS011;72971;47.204;8.582;2023-10-08T03:51:06;2.20;;;1.60;;
83097;SDS011;72971;47.204;8.582;2023-10-08T03:56:10;2.17;;;1.70;;
83097;SDS011;72971;47.204;8.582;2023-10-08T04:01:15;1.95;;;1.60;;
83097;SDS011;72971;47.204;8.582;2023-10-08T04:06:20;2.42;;;1.75;;
83097;SDS011;72971;47.204;8.582;2023-10-08T04:11:25;2.40;;;1.65;;
83097;SDS011;72971;47.204;8.582;2023-10-08T04:16:34;2.10;;;1.80;;
83097;SDS011;72971;47.204;8.582;2023-10-08T04:21:40;2.58;;;1.82;;
83097;SDS011;72971;47.204;8.582;2023-10-08T04:26:43;2.22;;;1.75;;
83097;SDS011;72971;47.204;8.582;2023-10-08T04:31:46;2.17;;;1.77;;
83097;SDS011;72971;47.204;8.582;2023-10-08T04:36:50;2.80;;;2.02;;
83097;SDS011;72971;47.204;8.582;2023-10-08T04:41:58;2.00;;;1.60;;
83097;SDS011;72971;47.204;8.582;2023-10-08T04:47:13;2.22;;;1.98;;
83097;SDS011;72971;47.204;8.582;2023-10-08T04:52:18;2.55;;;1.70;;
83097;SDS011;72971;47.204;8.582;2023-10-08T04:57:21;2.10;;;1.65;;
83097;SDS011;72971;47.204;8.582;2023-10-08T05:02:25;2.17;;;1.57;;
83097;SDS011;72971;47.204;8.582;2023-10-08T05:07:31;2.27;;;1.72;;
83097;SDS011;72971;47.204;8.582;2023-10-08T05:12:47;1.90;;;1.60;;
83097;SDS011;72971;47.204;8.582;2023-10-08T05:17:54;2.10;;;1.55;;
83097;SDS011;72971;47.204;8.582;2023-10-08T05:23:01;2.72;;;2.00;;
83097;SDS011;72971;47.204;8.582;2023-10-08T05:28:09;3.27;;;1.60;;
83097;SDS011;72971;47.204;8.582;2023-10-08T05:33:15;2.10;;;1.80;;
83097;SDS011;72971;47.204;8.582;2023-10-08T05:38:19;2.25;;;1.80;;
83097;SDS011;72971;47.204;8.582;2023-10-08T05:43:31;1.52;;;1.27;;
83097;SDS011;72971;47.204;8.582;2023-10-08T05:48:39;2.45;;;1.72;;
83097;SDS011;72971;47.204;8.582;2023-10-08T05:53:44;2.12;;;1.52;;
83097;SDS011;72971;47.204;8.582;2023-10-08T05:58:48;1.80;;;1.45;;
83097;SDS011;72971;47.204;8.582;2023-10-08T06:03:52;1.90;;;1.50;;
83097;SDS011;72971;47.204;8.582;2023-10-08T06:09:05;1.70;;;1.30;;
83097;SDS011;72971;47.204;8.582;2023-10-08T06:14:09;1.60;;;1.40;;
83097;SDS011;72971;47.204;8.582;2023-10-08T06:19:31;2.22;;;1.50;;
83097;SDS011;72971;47.204;8.582;2023-10-08T06:24:34;2.20;;;1.70;;
83097;SDS011;72971;47.204;8.582;2023-10-08T06:29:38;1.75;;;1.30;;
83097;SDS011;72971;47.204;8.582;2023-10-08T06:34:42;2.30;;;1.70;;
83097;SDS011;72971;47.204;8.582;2023-10-08T06:39:44;1.52;;;1.37;;
83097;SDS011;72971;47.204;8.582;2023-10-08T06:44:50;2.12;;;1.60;;
83097;SDS011;72971;47.204;8.582;2023-10-08T06:49:54;2.80;;;1.50;;
83097;SDS011;72971;47.204;8.582;2023-10-08T06:54:56;2.62;;;1.82;;
83097;SDS011;72971;47.204;8.582;2023-10-08T07:00:00;2.30;;;1.50;;
83097;SDS011;72971;47.204;8.582;2023-10-08T07:05:04;1.65;;;1.30;;
83097;SDS011;72971;47.204;8.582;2023-10-08T07:10:08;2.55;;;1.75;;
83097;SDS011;72971;47.204;8.582;2023-10-08T07:15:11;2.00;;;1.40;;
83097;SDS011;72971;47.204;8.582;2023-10-08T07:20:15;1.92;;;1.60;;
83097;SDS011;72971;47.204;8.582;2023-10-08T07:25:20;3.15;;;1.45;;
83097;SDS011;72971;47.204;8.582;2023-10-08T07:30:23;2.00;;;1.50;;
83097;SDS011;72971;47.204;8.582;2023-10-08T07:35:29;2.08;;;1.60;;
83097;SDS011;72971;47.204;8.582;2023-10-08T07:40:34;2.05;;;1.60;;
83097;SDS011;72971;47.204;8.582;2023-10-08T07:45:38;2.52;;;1.62;;
83097;SDS011;72971;47.204;8.582;2023-10-08T07:50:41;1.80;;;1.40;;
83097;SDS011;72971;47.204;8.582;2023-10-08T07:55:47;2.15;;;1.27;;
83097;SDS011;72971;47.204;8.582;2023-10-08T08:00:50;2.02;;;1.62;;
83097;SDS011;72971;47.204;8.582;2023-10-08T08:05:52;2.05;;;1.40;;
83097;SDS011;72971;47.204;8.582;2023-10-08T08:10:55;2.02;;;1.37;;
83097;SDS011;72971;47.204;8.582;2023-10-08T08:15:59;1.90;;;1.42;;
83097;SDS011;72971;47.204;8.582;2023-10-08T08:21:08;2.35;;;1.75;;
83097;SDS011;72971;47.204;8.582;2023-10-08T08:26:11;2.00;;;1.50;;
83097;SDS011;72971;47.204;8.582;2023-10-08T08:31:14;2.42;;;1.60;;
83097;SDS011;72971;47.204;8.582;2023-10-08T08:36:20;2.17;;;1.60;;
83097;SDS011;72971;47.204;8.582;2023-10-08T08:41:23;1.98;;;1.50;;
83097;SDS011;72971;47.204;8.582;2023-10-08T08:46:37;1.70;;;1.40;;
83097;SDS011;72971;47.204;8.582;2023-10-08T08:51:38;2.20;;;1.55;;
83097;SDS011;72971;47.204;8.582;2023-10-08T08:56:42;2.40;;;1.60;;
83097;SDS011;72971;47.204;8.582;2023-10-08T09:01:45;1.85;;;1.57;;
83097;SDS011;72971;47.204;8.582;2023-10-08T09:06:51;1.92;;;1.40;;
83097;SDS011;72971;47.204;8.582;2023-10-08T09:11:54;2.02;;;1.50;;
83097;SDS011;72971;47.204;8.582;2023-10-08T09:16:59;1.98;;;1.40;;
83097;SDS011;72971;47.204;8.582;2023-10-08T09:22:05;2.30;;;1.52;;
83097;SDS011;72971;47.204;8.582;2023-10-08T09:27:09;2.85;;;1.70;;
83097;SDS011;72971;47.204;8.582;2023-10-08T09:32:16;2.35;;;1.55;;
83097;SDS011;72971;47.204;8.582;2023-10-08T09:37:23;1.95;;;1.32;;
83097;SDS011;72971;47.204;8.582;2023-10-08T09:42:26;2.22;;;1.50;;
83097;SDS011;72971;47.204;8.582;2023-10-08T09:47:31;1.65;;;1.12;;
83097;SDS011;72971;47.204;8.582;2023-10-08T09:52:49;2.10;;;1.50;;
83097;SDS011;72971;47.204;8.582;2023-10-08T09:57:53;3.95;;;1.67;;
83097;SDS011;72971;47.204;8.582;2023-10-08T10:02:59;2.00;;;1.40;;
83097;SDS011;72971;47.204;8.582;2023-10-08T10:08:09;2.40;;;1.62;;
83097;SDS011;72971;47.204;8.582;2023-10-08T10:13:11;2.55;;;1.70;;
83097;SDS011;72971;47.204;8.582;2023-10-08T10:18:15;2.60;;;1.80;;
83097;SDS011;72971;47.204;8.582;2023-10-08T10:23:43;2.50;;;1.70;;
83097;SDS011;72971;47.204;8.582;2023-10-08T10:28:46;2.37;;;1.67;;
83097;SDS011;72971;47.204;8.582;2023-10-08T10:33:57;2.60;;;1.42;;
83097;SDS011;72971;47.204;8.582;2023-10-08T10:39:00;1.98;;;1.35;;
83097;SDS011;72971;47.204;8.582;2023-10-08T10:44:04;2.15;;;1.40;;
83097;SDS011;72971;47.204;8.582;2023-10-08T10:49:09;2.67;;;1.72;;
83097;SDS011;72971;47.204;8.582;2023-10-08T10:54:23;2.80;;;1.60;;
83097;SDS011;72971;47.204;8.582;2023-10-08T10:59:26;2.33;;;1.60;;
83097;SDS011;72971;47.204;8.582;2023-10-08T11:04:29;3.17;;;1.87;;
83097;SDS011;72971;47.204;8.582;2023-10-08T11:09:33;2.12;;;1.60;;
83097;SDS011;72971;47.204;8.582;2023-10-08T11:14:41;2.12;;;1.50;;
83097;SDS011;72971;47.204;8.582;2023-10-08T11:19:46;2.65;;;1.50;;
83097;SDS011;72971;47.204;8.582;2023-10-08T11:24:49;2.42;;;1.50;;
83097;SDS011;72971;47.204;8.582;2023-10-08T11:29:57;2.95;;;1.60;;
83097;SDS011;72971;47.204;8.582;2023-10-08T11:35:01;2.98;;;1.85;;
83097;SDS011;72971;47.204;8.582;2023-10-08T11:40:05;3.80;;;1.77;;
83097;SDS011;72971;47.204;8.582;2023-10-08T11:45:12;4.30;;;1.90;;
83097;SDS011;72971;47.204;8.582;2023-10-08T11:50:26;2.83;;;1.85;;
83097;SDS011;72971;47.204;8.582;2023-10-08T11:55:33;3.00;;;1.62;;
83097;SDS011;72971;47.204;8.582;2023-10-08T12:00:38;2.20;;;1.60;;
83097;SDS011;72971;47.204;8.582;2023-10-08T12:05:45;3.42;;;1.80;;
83097;SDS011;72971;47.204;8.582;2023-10-08T12:10:52;3.95;;;1.65;;
83097;SDS011;72971;47.204;8.582;2023-10-08T12:15:55;2.42;;;1.60;;
83097;SDS011;72971;47.204;8.582;2023-10-08T12:21:05;3.50;;;1.95;;
83097;SDS011;72971;47.204;8.582;2023-10-08T12:26:16;3.52;;;1.62;;
83097;SDS011;72971;47.204;8.582;2023-10-08T12:31:22;2.85;;;1.70;;
83097;SDS011;72971;47.204;8.582;2023-10-08T12:36:26;3.52;;;1.90;;
83097;SDS011;72971;47.204;8.582;2023-10-08T12:41:30;3.67;;;1.70;;
83097;SDS011;72971;47.204;8.582;2023-10-08T12:46:32;2.35;;;1.80;;
83097;SDS011;72971;47.204;8.582;2023-10-08T12:51:35;3.55;;;1.70;;
83097;SDS011;72971;47.204;8.582;2023-10-08T12:56:39;3.52;;;1.70;;
83097;SDS011;72971;47.204;8.582;2023-10-08T13:01:44;3.90;;;2.08;;
83097;SDS011;72971;47.204;8.582;2023-10-08T13:06:46;3.77;;;1.67;;
83097;SDS011;72971;47.204;8.582;2023-10-08T13:11:49;3.58;;;1.87;;
83097;SDS011;72971;47.204;8.582;2023-10-08T13:22:13;2.60;;;1.90;;
83097;SDS011;72971;47.204;8.582;2023-10-08T13:27:17;3.33;;;1.80;;
83097;SDS011;72971;47.204;8.582;2023-10-08T13:32:20;4.53;;;2.00;;
83097;SDS011;72971;47.204;8.582;2023-10-08T13:37:22;2.90;;;1.57;;
83097;SDS011;72971;47.204;8.582;2023-10-08T13:42:25;4.03;;;2.12;;
83097;SDS011;72971;47.204;8.582;2023-10-08T13:47:27;3.37;;;1.90;;
83097;SDS011;72971;47.204;8.582;2023-10-08T13:52:32;3.12;;;1.80;;
83097;SDS011;72971;47.204;8.582;2023-10-08T13:57:36;3.37;;;1.80;;
83097;SDS011;72971;47.204;8.582;2023-10-08T14:02:42;4.37;;;1.75;;
83097;SDS011;72971;47.204;8.582;2023-10-08T14:07:45;2.33;;;1.60;;
83097;SDS011;72971;47.204;8.582;2023-10-08T14:12:49;4.55;;;1.70;;
83097;SDS011;72971;47.204;8.582;2023-10-08T14:17:52;2.47;;;1.57;;
83097;SDS011;72971;47.204;8.582;2023-10-08T14:22:56;4.30;;;1.80;;
83097;SDS011;72971;47.204;8.582;2023-10-08T14:28:00;2.58;;;1.62;;
83097;SDS011;72971;47.204;8.582;2023-10-08T14:33:04;3.02;;;1.82;;
83097;SDS011;72971;47.204;8.582;2023-10-08T14:38:09;3.90;;;1.80;;
83097;SDS011;72971;47.204;8.582;2023-10-08T14:43:29;2.40;;;1.85;;
83097;SDS011;72971;47.204;8.582;2023-10-08T14:48:33;3.35;;;1.80;;
83097;SDS011;72971;47.204;8.582;2023-10-08T14:53:36;2.75;;;1.77;;
83097;SDS011;72971;47.204;8.582;2023-10-08T14:58:39;3.12;;;2.00;;
83097;SDS011;72971;47.204;8.582;2023-10-08T15:03:42;3.12;;;1.80;;
83097;SDS011;72971;47.204;8.582;2023-10-08T15:08:46;3.33;;;1.70;;
83097;SDS011;72971;47.204;8.582;2023-10-08T15:13:50;4.50;;;1.67;;
83097;SDS011;72971;47.204;8.582;2023-10-08T15:18:54;2.75;;;1.90;;
83097;SDS011;72971;47.204;8.582;2023-10-08T15:23:57;1.90;;;1.45;;
83097;SDS011;72971;47.204;8.582;2023-10-08T15:29:02;3.20;;;1.80;;
83097;SDS011;72971;47.204;8.582;2023-10-08T15:34:05;3.72;;;1.65;;
83097;SDS011;72971;47.204;8.582;2023-10-08T15:39:08;2.72;;;1.67;;
83097;SDS011;72971;47.204;8.582;2023-10-08T15:44:18;3.08;;;1.65;;
83097;SDS011;72971;47.204;8.582;2023-10-08T15:49:23;2.33;;;1.60;;
83097;SDS011;72971;47.204;8.582;2023-10-08T15:54:25;3.77;;;1.70;;
83097;SDS011;72971;47.204;8.582;2023-10-08T15:59:29;2.40;;;1.70;;
83097;SDS011;72971;47.204;8.582;2023-10-08T16:04:32;2.75;;;1.60;;
83097;SDS011;72971;47.204;8.582;2023-10-08T16:09:34;3.27;;;1.50;;
83097;SDS011;72971;47.204;8.582;2023-10-08T16:14:37;2.87;;;1.30;;
83097;SDS011;72971;47.204;8.582;2023-10-08T16:19:39;1.98;;;1.40;;
83097;SDS011;72971;47.204;8.582;2023-10-08T16:24:42;2.60;;;1.50;;
83097;SDS011;72971;47.204;8.582;2023-10-08T16:29:45;2.55;;;1.40;;
83097;SDS011;72971;47.204;8.582;2023-10-08T16:34:48;3.00;;;1.40;;
83097;SDS011;72971;47.204;8.582;2023-10-08T16:39:50;2.50;;;1.50;;
83097;SDS011;72971;47.204;8.582;2023-10-08T16:44:53;2.98;;;1.50;;
83097;SDS011;72971;47.204;8.582;2023-10-08T16:49:57;2.92;;;1.50;;
83097;SDS011;72971;47.204;8.582;2023-10-08T16:55:01;1.98;;;1.40;;
83097;SDS011;72971;47.204;8.582;2023-10-08T17:00:04;3.62;;;1.50;;
83097;SDS011;72971;47.204;8.582;2023-10-08T17:05:09;2.52;;;1.27;;
83097;SDS011;72971;47.204;8.582;2023-10-08T17:10:14;2.33;;;1.37;;
83097;SDS011;72971;47.204;8.582;2023-10-08T17:15:20;3.50;;;1.50;;
83097;SDS011;72971;47.204;8.582;2023-10-08T17:20:23;2.00;;;1.52;;
83097;SDS011;72971;47.204;8.582;2023-10-08T17:25:27;3.00;;;1.45;;
83097;SDS011;72971;47.204;8.582;2023-10-08T17:30:30;2.27;;;1.35;;
83097;SDS011;72971;47.204;8.582;2023-10-08T17:35:33;3.12;;;1.62;;
83097;SDS011;72971;47.204;8.582;2023-10-08T17:40:37;1.95;;;1.10;;
83097;SDS011;72971;47.204;8.582;2023-10-08T17:45:42;2.70;;;1.17;;
83097;SDS011;72971;47.204;8.582;2023-10-08T17:50:46;3.02;;;1.37;;
83097;SDS011;72971;47.204;8.582;2023-10-08T17:55:50;2.58;;;1.10;;
83097;SDS011;72971;47.204;8.582;2023-10-08T18:00:55;2.65;;;1.47;;
83097;SDS011;72971;47.204;8.582;2023-10-08T18:05:58;1.62;;;1.17;;
83097;SDS011;72971;47.204;8.582;2023-10-08T18:11:01;2.35;;;1.40;;
83097;SDS011;72971;47.204;8.582;2023-10-08T18:16:05;1.87;;;1.15;;
83097;SDS011;72971;47.204;8.582;2023-10-08T18:21:13;2.08;;;1.42;;
83097;SDS011;72971;47.204;8.582;2023-10-08T18:26:19;1.60;;;1.10;;
83097;SDS011;72971;47.204;8.582;2023-10-08T18:31:23;2.55;;;1.35;;
83097;SDS011;72971;47.204;8.582;2023-10-08T18:36:27;2.00;;;1.45;;
83097;SDS011;72971;47.204;8.582;2023-10-08T18:41:29;2.40;;;1.50;;
83097;SDS011;72971;47.204;8.582;2023-10-08T18:46:32;2.62;;;1.30;;
83097;SDS011;72971;47.204;8.582;2023-10-08T18:51:35;2.08;;;1.30;;
83097;SDS011;72971;47.204;8.582;2023-10-08T18:56:40;2.83;;;1.40;;
83097;SDS011;72971;47.204;8.582;2023-10-08T19:01:43;2.47;;;1.00;;
83097;SDS011;72971;47.204;8.582;2023-10-08T19:06:46;1.82;;;1.15;;
83097;SDS011;72971;47.204;8.582;2023-10-08T19:11:48;2.65;;;1.30;;
83097;SDS011;72971;47.204;8.582;2023-10-08T19:16:51;1.85;;;1.22;;
83097;SDS011;72971;47.204;8.582;2023-10-08T19:21:55;1.75;;;1.30;;
83097;SDS011;72971;47.204;8.582;2023-10-08T19:26:58;1.70;;;1.37;;
83097;SDS011;72971;47.204;8.582;2023-10-08T19:32:02;2.45;;;1.30;;
83097;SDS011;72971;47.204;8.582;2023-10-08T19:37:05;1.75;;;1.20;;
83097;SDS011;72971;47.204;8.582;2023-10-08T19:42:07;2.42;;;1.52;;
83097;SDS011;72971;47.204;8.582;2023-10-08T19:47:10;1.95;;;1.40;;
83097;SDS011;72971;47.204;8.582;2023-10-08T19:52:14;2.85;;;1.55;;
83097;SDS011;72971;47.204;8.582;2023-10-08T19:57:17;1.80;;;1.30;;
83097;SDS011;72971;47.204;8.582;2023-10-08T20:02:19;1.90;;;1.30;;
83097;SDS011;72971;47.204;8.582;2023-10-08T20:07:22;1.85;;;1.45;;
83097;SDS011;72971;47.204;8.582;2023-10-08T20:12:25;1.75;;;1.10;;
83097;SDS011;72971;47.204;8.582;2023-10-08T20:17:28;2.80;;;1.45;;
83097;SDS011;72971;47.204;8.582;2023-10-08T20:22:30;3.25;;;1.40;;
83097;SDS011;72971;47.204;8.582;2023-10-08T20:27:33;1.87;;;1.40;;
83097;SDS011;72971;47.204;8.582;2023-10-08T20:32:40;2.10;;;1.10;;
83097;SDS011;72971;47.204;8.582;2023-10-08T20:37:46;1.95;;;1.20;;
83097;SDS011;72971;47.204;8.582;2023-10-08T20:42:52;1.65;;;1.00;;
83097;SDS011;72971;47.204;8.582;2023-10-08T20:47:56;1.98;;;1.40;;
83097;SDS011;72971;47.204;8.582;2023-10-08T20:53:02;1.67;;;1.00;;
83097;SDS011;72971;47.204;8.582;2023-10-08T20:58:06;2.02;;;1.30;;
83097;SDS011;72971;47.204;8.582;2023-10-08T21:03:09;2.50;;;1.32;;
83097;SDS011;72971;47.204;8.582;2023-10-08T21:08:13;2.55;;;1.45;;
83097;SDS011;72971;47.204;8.582;2023-10-08T21:13:16;1.85;;;1.40;;
83097;SDS011;72971;47.204;8.582;2023-10-08T21:18:19;1.67;;;1.00;;
83097;SDS011;72971;47.204;8.582;2023-10-08T21:23:23;1.92;;;1.20;;
83097;SDS011;72971;47.204;8.582;2023-10-08T21:28:28;1.77;;;1.20;;
83097;SDS011;72971;47.204;8.582;2023-10-08T21:33:30;2.08;;;1.05;;
83097;SDS011;72971;47.204;8.582;2023-10-08T21:38:34;2.17;;;1.12;;
83097;SDS011;72971;47.204;8.582;2023-10-08T21:43:36;1.82;;;1.20;;
83097;SDS011;72971;47.204;8.582;2023-10-08T21:48:42;2.75;;;1.40;;
83097;SDS011;72971;47.204;8.582;2023-10-08T21:53:45;2.20;;;1.17;;
83097;SDS011;72971;47.204;8.582;2023-10-08T21:58:47;1.57;;;1.20;;
83097;SDS011;72971;47.204;8.582;2023-10-08T22:03:50;1.80;;;1.20;;
83097;SDS011;72971;47.204;8.582;2023-10-08T22:08:54;1.55;;;1.05;;
83097;SDS011;72971;47.204;8.582;2023-10-08T22:13:57;1.40;;;1.10;;
83097;SDS011;72971;47.204;8.582;2023-10-08T22:18:59;1.60;;;1.15;;
83097;SDS011;72971;47.204;8.582;2023-10-08T22:24:04;2.08;;;1.30;;
83097;SDS011;72971;47.204;8.582;2023-10-08T22:29:13;2.35;;;1.20;;
83097;SDS011;72971;47.204;8.582;2023-10-08T22:34:16;1.27;;;1.00;;
83097;SDS011;72971;47.204;8.582;2023-10-08T22:39:21;1.45;;;1.20;;
83097;SDS011;72971;47.204;8.582;2023-10-08T22:44:23;1.90;;;1.07;;
83097;SDS011;72971;47.204;8.582;2023-10-08T22:49:31;1.10;;;0.98;;
83097;SDS011;72971;47.204;8.582;2023-10-08T22:54:33;1.98;;;1.20;;
83097;SDS011;72971;47.204;8.582;2023-10-08T22:59:38;2.33;;;1.20;;
83097;SDS011;72971;47.204;8.582;2023-10-08T23:04:40;1.80;;;1.20;;
83097;SDS011;72971;47.204;8.582;2023-10-08T23:09:45;2.22;;;1.20;;
83097;SDS011;72971;47.204;8.582;2023-10-08T23:14:47;1.60;;;1.15;;
83097;SDS011;72971;47.204;8.582;2023-10-08T23:19:49;1.80;;;1.30;;
83097;SDS011;72971;47.204;8.582;2023-10-08T23:24:52;1.70;;;0.90;;
83097;SDS011;72971;47.204;8.582;2023-10-08T23:29:55;1.62;;;1.07;;
83097;SDS011;72971;47.204;8.582;2023-10-08T23:34:58;1.50;;;1.07;;
83097;SDS011;72971;47.204;8.582;2023-10-08T23:40:00;1.72;;;1.27;;
83097;SDS011;72971;47.204;8.582;2023-10-08T23:45:05;1.60;;;1.10;;
83097;SDS011;72971;47.204;8.582;2023-10-08T23:50:10;1.82;;;1.15;;
83097;SDS011;72971;47.204;8.582;2023-10-08T23:55:14;1.98;;;1.00;;
